Time;durP1;ratioP1;P1;durP2;ratioP2;P2;SDS_P1;SDS_P2;PMS_P1;PMS_P2;Temp;Humidity;BMP_temperature;BMP_pressure;BME280_temperature;BME280_humidity;BME280_pressure;Samples;Min_cycle;Max_cycle;Signal;HPM_P1;HPM_P2
2022/11/24 00:01:19;;;;;;;2.22;1.63;;;4.60;99.90;;;;;;4718493;30;20049;-81
2022/11/24 00:03:54;;;;;;;1.88;1.77;;;4.70;99.90;;;;;;4720025;30;20076;-82
2022/11/24 00:06:22;;;;;;;1.42;1.33;;;4.90;99.90;;;;;;4736116;30;20053;-82
2022/11/24 00:08:50;;;;;;;1.67;1.58;;;5.00;99.90;;;;;;4720007;30;20396;-81
2022/11/24 00:11:26;;;;;;;2.60;2.40;;;5.00;99.90;;;;;;4735637;30;20048;-81
2022/11/24 00:13:54;;;;;;;2.85;1.70;;;5.00;99.90;;;;;;4736252;30;20484;-81
2022/11/24 00:16:23;;;;;;;2.05;1.92;;;5.00;99.90;;;;;;4735692;30;20500;-82
2022/11/24 00:18:53;;;;;;;5.60;1.85;;;5.00;99.90;;;;;;4735494;30;20060;-81
2022/11/24 00:21:21;;;;;;;1.45;1.35;;;5.10;99.90;;;;;;4719938;30;20052;-81
2022/11/24 00:23:49;;;;;;;11.93;5.65;;;5.10;99.90;;;;;;4735480;30;20121;-82
2022/11/24 00:26:25;;;;;;;2.25;2.00;;;5.20;99.90;;;;;;4735872;30;20063;-82
2022/11/24 00:28:57;;;;;;;4.72;1.83;;;5.30;99.90;;;;;;4735290;30;20041;-81
2022/11/24 00:31:28;;;;;;;1.95;1.48;;;5.40;99.90;;;;;;4735422;30;20037;-81
2022/11/24 00:33:59;;;;;;;7.28;1.30;;;5.40;99.90;;;;;;4735577;30;20052;-81
2022/11/24 00:36:29;;;;;;;2.42;1.58;;;5.40;99.90;;;;;;4735124;30;20512;-83
2022/11/24 00:38:59;;;;;;;6.60;1.85;;;5.50;99.90;;;;;;4735152;30;20060;-81
2022/11/24 00:41:28;;;;;;;7.20;2.10;;;5.50;99.90;;;;;;4720080;30;20496;-82
2022/11/24 00:43:56;;;;;;;2.30;1.88;;;5.60;99.90;;;;;;4735103;30;20048;-81
2022/11/24 00:46:24;;;;;;;2.85;1.83;;;5.50;99.90;;;;;;4719950;30;20245;-82
2022/11/24 00:48:52;;;;;;;4.65;1.48;;;5.50;99.90;;;;;;4734768;30;20060;-82
2022/11/24 00:51:22;;;;;;;3.47;1.90;;;5.40;99.90;;;;;;4735141;30;20754;-81
2022/11/24 00:53:49;;;;;;;3.33;3.13;;;5.50;99.90;;;;;;4735477;30;20063;-82
2022/11/24 00:56:20;;;;;;;5.90;1.48;;;5.60;99.90;;;;;;4734923;30;20045;-81
2022/11/24 00:58:47;;;;;;;1.88;1.77;;;5.50;99.90;;;;;;4734705;30;20049;-81
2022/11/24 01:01:20;;;;;;;3.50;1.35;;;5.60;99.90;;;;;;4733532;30;20056;-81
2022/11/24 01:03:48;;;;;;;4.65;1.30;;;5.60;99.90;;;;;;4734382;30;20049;-81
2022/11/24 01:06:26;;;;;;;1.23;1.10;;;5.60;99.90;;;;;;4735027;30;20499;-81
2022/11/24 01:08:54;;;;;;;4.93;1.75;;;5.60;99.90;;;;;;4734345;30;20051;-82
2022/11/24 01:11:25;;;;;;;9.23;2.13;;;5.60;99.90;;;;;;4734987;30;20400;-81
2022/11/24 01:13:56;;;;;;;5.15;2.28;;;5.60;99.90;;;;;;4735168;30;20057;-81
2022/11/24 01:16:30;;;;;;;3.05;2.38;;;5.70;99.90;;;;;;4734365;30;20064;-81
2022/11/24 01:18:58;;;;;;;5.03;1.52;;;5.70;99.90;;;;;;4734508;30;20064;-81
2022/11/24 01:21:26;;;;;;;5.28;1.45;;;5.70;99.90;;;;;;4728206;30;20059;-83
2022/11/24 01:23:53;;;;;;;3.00;1.92;;;5.60;99.90;;;;;;4715943;30;20045;-82
2022/11/24 01:26:24;;;;;;;4.55;1.30;;;5.70;99.90;;;;;;4717405;30;20057;-81
2022/11/24 01:28:56;;;;;;;2.85;1.75;;;5.70;99.90;;;;;;4717258;30;20059;-81
2022/11/24 01:31:25;;;;;;;2.00;1.85;;;5.70;99.90;;;;;;4717067;30;20408;-81
2022/11/24 01:33:53;;;;;;;2.50;2.22;;;5.70;99.90;;;;;;4717275;30;20060;-84
2022/11/24 01:36:21;;;;;;;3.35;1.35;;;5.70;99.90;;;;;;4716887;30;20049;-81
2022/11/24 01:38:48;;;;;;;1.60;1.50;;;5.60;99.90;;;;;;4717248;30;20404;-81
2022/11/24 01:41:20;;;;;;;8.20;2.30;;;5.60;99.90;;;;;;4717018;30;20111;-84
2022/11/24 01:43:47;;;;;;;3.40;1.67;;;5.70;99.90;;;;;;4701283;30;20982;-83
2022/11/24 01:46:21;;;;;;;5.80;3.67;;;5.80;99.90;;;;;;4717109;30;20053;-81
2022/11/24 01:48:56;;;;;;;5.93;2.25;;;5.70;99.90;;;;;;4716506;30;20041;-81
2022/11/24 01:51:28;;;;;;;2.45;2.22;;;5.70;99.90;;;;;;4716781;30;20045;-81
2022/11/24 01:53:59;;;;;;;2.53;2.15;;;5.70;99.90;;;;;;4717296;30;20071;-81
2022/11/24 01:56:28;;;;;;;7.95;1.30;;;5.70;99.90;;;;;;4716534;30;20045;-82
2022/11/24 01:59:00;;;;;;;7.28;2.75;;;5.60;99.90;;;;;;4716757;30;20057;-81
2022/11/24 02:01:30;;;;;;;2.38;1.42;;;5.70;99.90;;;;;;4717152;30;20094;-80
2022/11/24 02:04:02;;;;;;;9.85;1.48;;;5.60;99.90;;;;;;4715999;30;20060;-81
2022/11/24 02:06:32;;;;;;;;;;;5.40;99.90;;;;;;4717426;30;20068;-81
2022/11/24 02:09:05;;;;;;;1.52;1.42;;;5.40;99.90;;;;;;4706343;30;19927;-81
2022/11/24 02:11:36;;;;;;;5.00;1.23;;;5.30;99.90;;;;;;4716658;30;20049;-81
2022/11/24 02:14:10;;;;;;;3.43;1.10;;;5.30;99.90;;;;;;4716875;30;20064;-81
2022/11/24 02:16:39;;;;;;;8.13;1.60;;;5.20;99.90;;;;;;4700599;30;20049;-81
2022/11/24 02:19:24;;;;;;;3.88;2.88;;;5.20;99.90;;;;;;4716270;30;20053;-81
2022/11/24 02:21:51;;;;;;;1.83;1.73;;;5.30;99.90;;;;;;4716895;30;20056;-81
2022/11/24 02:24:40;;;;;;;4.38;2.33;;;5.30;99.90;;;;;;4732406;30;20073;-82
2022/11/24 02:27:09;;;;;;;7.25;2.15;;;5.30;99.90;;;;;;4733812;30;20484;-81
2022/11/24 02:29:37;;;;;;;1.05;1.02;;;5.40;99.90;;;;;;4747720;30;20056;-81
2022/11/24 02:32:07;;;;;;;5.72;2.33;;;5.30;99.90;;;;;;4733653;30;20049;-81
2022/11/24 02:34:35;;;;;;;2.45;1.42;;;5.40;99.90;;;;;;4734129;30;20065;-81
2022/11/24 02:37:03;;;;;;;4.18;1.48;;;5.30;99.90;;;;;;4729675;30;20052;-81
2022/11/24 02:39:30;;;;;;;3.25;1.00;;;5.20;99.90;;;;;;4733714;30;20051;-81
2022/11/24 02:42:06;;;;;;;5.07;3.55;;;5.20;99.90;;;;;;4734189;30;20404;-81
2022/11/24 02:44:39;;;;;;;7.13;1.95;;;5.10;99.90;;;;;;4733834;30;20431;-81
2022/11/24 02:47:11;;;;;;;1.40;1.30;;;5.10;99.90;;;;;;4733482;30;20417;-81
2022/11/24 02:49:39;;;;;;;3.90;1.15;;;5.10;99.90;;;;;;4733872;30;20051;-81
2022/11/24 02:52:06;;;;;;;3.55;3.03;;;4.90;99.90;;;;;;4733618;30;20068;-81
2022/11/24 02:54:34;;;;;;;2.88;2.45;;;4.90;99.90;;;;;;4734108;30;20499;-81
2022/11/24 02:57:02;;;;;;;1.65;1.48;;;4.90;99.90;;;;;;4733392;30;20057;-81
2022/11/24 02:59:30;;;;;;;1.65;1.55;;;5.00;99.90;;;;;;4733568;30;20051;-81
2022/11/24 03:01:57;;;;;;;1.52;1.42;;;5.10;99.90;;;;;;4734044;30;20404;-82
2022/11/24 03:04:25;;;;;;;0.90;0.90;;;5.10;99.90;;;;;;4733106;30;20059;-81
2022/11/24 03:06:52;;;;;;;2.78;1.30;;;5.10;99.90;;;;;;4733994;30;20056;-81
2022/11/24 03:09:19;;;;;;;3.03;1.23;;;5.10;99.90;;;;;;4733490;30;20057;-81
2022/11/24 03:11:47;;;;;;;4.78;1.55;;;5.20;99.90;;;;;;4733670;30;20045;-82
2022/11/24 03:14:14;;;;;;;1.35;1.25;;;5.20;99.90;;;;;;4734034;30;20056;-81
2022/11/24 03:16:42;;;;;;;3.28;1.73;;;5.30;99.90;;;;;;4733290;30;20407;-81
2022/11/24 03:19:09;;;;;;;2.28;1.05;;;5.30;99.90;;;;;;4733342;30;20056;-81
2022/11/24 03:21:36;;;;;;;2.38;1.60;;;5.30;99.90;;;;;;4734888;30;20053;-82
2022/11/24 03:24:04;;;;;;;1.85;1.20;;;5.30;99.90;;;;;;4736586;30;20051;-82
2022/11/24 03:26:35;;;;;;;2.08;1.00;;;5.40;99.90;;;;;;4736668;30;20067;-82
2022/11/24 03:29:02;;;;;;;1.13;1.13;;;5.40;99.90;;;;;;4736415;30;20050;-82
2022/11/24 03:31:30;;;;;;;1.02;1.00;;;5.40;99.90;;;;;;4720878;30;20045;-81
2022/11/24 03:33:57;;;;;;;3.15;1.17;;;5.30;99.90;;;;;;4736366;30;20059;-81
2022/11/24 03:36:25;;;;;;;1.67;1.05;;;5.30;99.90;;;;;;4736030;30;20048;-83
2022/11/24 03:38:52;;;;;;;2.30;2.03;;;5.30;99.90;;;;;;4736724;30;20056;-82
2022/11/24 03:41:20;;;;;;;1.38;1.05;;;5.40;99.90;;;;;;4736305;30;20060;-81
2022/11/24 03:43:47;;;;;;;0.82;0.82;;;5.30;99.90;;;;;;4736061;30;20130;-81
2022/11/24 03:46:14;;;;;;;1.10;0.98;;;5.30;99.90;;;;;;4720740;30;20056;-81
2022/11/24 03:48:42;;;;;;;4.40;1.10;;;5.20;99.90;;;;;;4719675;30;20044;-82
2022/11/24 03:51:10;;;;;;;2.65;1.13;;;5.30;99.90;;;;;;4736340;30;20057;-82
2022/11/24 03:53:37;;;;;;;3.75;1.27;;;5.40;99.90;;;;;;4720973;30;20496;-82
2022/11/24 03:56:06;;;;;;;1.40;1.05;;;5.40;99.90;;;;;;4720511;30;20056;-82
2022/11/24 03:58:33;;;;;;;2.38;1.02;;;5.40;99.90;;;;;;4736210;30;20063;-82
2022/11/24 04:01:02;;;;;;;1.02;1.02;;;5.40;99.90;;;;;;4735761;30;20045;-81
2022/11/24 04:03:29;;;;;;;5.35;1.23;;;5.50;99.90;;;;;;4735565;30;20119;-81
2022/11/24 04:05:57;;;;;;;1.52;1.13;;;5.40;99.90;;;;;;4736566;30;20079;-82
2022/11/24 04:08:24;;;;;;;2.47;1.00;;;5.40;99.90;;;;;;4727782;30;20057;-82
2022/11/24 04:10:53;;;;;;;1.65;1.55;;;5.40;99.90;;;;;;4732280;30;20057;-82
2022/11/24 04:13:23;;;;;;;1.40;1.00;;;5.40;99.90;;;;;;4735677;30;20500;-81
2022/11/24 04:15:51;;;;;;;0.73;0.73;;;5.30;99.90;;;;;;4735706;30;20070;-81
2022/11/24 04:18:19;;;;;;;1.88;1.02;;;5.20;99.90;;;;;;4736091;30;20052;-81
2022/11/24 04:20:50;;;;;;;3.72;1.73;;;5.20;99.90;;;;;;4719496;30;20067;-81
2022/11/24 04:23:18;;;;;;;4.05;3.70;;;5.20;99.90;;;;;;4735543;30;20044;-81
2022/11/24 04:25:48;;;;;;;2.40;1.08;;;5.20;99.90;;;;;;4736152;30;20394;-81
2022/11/24 04:28:16;;;;;;;2.67;2.47;;;5.30;99.90;;;;;;4734941;30;20049;-81
2022/11/24 04:30:43;;;;;;;0.95;0.95;;;5.20;99.90;;;;;;4735708;30;20396;-81
2022/11/24 04:33:12;;;;;;;3.40;1.15;;;5.20;99.90;;;;;;4719665;30;20052;-81
2022/11/24 04:35:39;;;;;;;1.70;1.05;;;5.20;99.90;;;;;;4734971;30;20045;-81
2022/11/24 04:38:07;;;;;;;1.80;0.90;;;5.20;99.90;;;;;;4735751;30;20877;-81
2022/11/24 04:40:34;;;;;;;4.63;3.95;;;5.10;99.90;;;;;;4735504;30;20049;-81
2022/11/24 04:43:02;;;;;;;1.10;1.10;;;5.20;99.90;;;;;;4735070;30;20052;-81
2022/11/24 04:45:29;;;;;;;1.85;1.00;;;5.10;99.90;;;;;;4735642;30;20056;-81
2022/11/24 04:47:56;;;;;;;3.20;2.22;;;5.20;99.90;;;;;;4734983;30;20048;-82
2022/11/24 04:50:24;;;;;;;1.27;1.17;;;5.30;99.90;;;;;;4735115;30;20461;-82
2022/11/24 04:52:51;;;;;;;1.65;0.85;;;5.30;99.90;;;;;;4735144;30;20071;-81
2022/11/24 04:55:18;;;;;;;2.05;1.05;;;5.20;99.90;;;;;;4735051;30;20065;-81
2022/11/24 04:57:46;;;;;;;1.13;1.00;;;5.20;99.90;;;;;;4732501;30;20056;-82
2022/11/24 05:00:14;;;;;;;1.73;1.50;;;5.30;99.90;;;;;;4734691;30;20049;-81
2022/11/24 05:02:41;;;;;;;0.82;0.60;;;5.20;99.90;;;;;;4732550;30;20074;-81
2022/11/24 05:05:09;;;;;;;2.30;0.90;;;5.20;99.90;;;;;;4734226;30;20052;-81
2022/11/24 05:07:36;;;;;;;2.15;0.90;;;5.10;99.90;;;;;;4733826;30;20053;-81
2022/11/24 05:12:55;;;;;;;0.80;0.80;;;5.20;99.90;;;;;;4731449;30;20044;-81
2022/11/24 05:15:22;;;;;;;1.95;1.33;;;5.20;99.90;;;;;;4734136;30;20053;-81
2022/11/24 05:17:50;;;;;;;1.35;1.25;;;5.10;99.90;;;;;;4734873;30;20057;-81
2022/11/24 05:20:18;;;;;;;1.27;0.95;;;5.10;99.90;;;;;;4734314;30;20061;-82
2022/11/24 05:22:45;;;;;;;1.48;0.65;;;5.20;99.90;;;;;;4735000;30;20064;-81
2022/11/24 05:25:13;;;;;;;2.80;1.58;;;5.20;99.90;;;;;;4734587;30;20049;-81
2022/11/24 05:27:40;;;;;;;0.70;0.70;;;5.10;99.90;;;;;;4734163;30;20052;-81
2022/11/24 05:30:09;;;;;;;1.10;0.75;;;5.20;99.90;;;;;;4732889;30;20484;-81
2022/11/24 05:32:36;;;;;;;0.70;0.70;;;5.10;99.90;;;;;;4734330;30;20049;-82
2022/11/24 05:35:04;;;;;;;1.17;0.80;;;5.10;99.90;;;;;;4734070;30;20056;-83
2022/11/24 05:37:32;;;;;;;2.30;1.00;;;5.10;99.90;;;;;;4734408;30;20060;-83
2022/11/24 05:39:59;;;;;;;3.22;1.58;;;5.10;99.90;;;;;;4734363;30;20056;-82
2022/11/24 05:42:39;;;;;;;7.55;1.60;;;5.10;99.90;;;;;;4734638;30;20064;-84
2022/11/24 05:45:16;;;;;;;1.85;0.70;;;5.10;99.90;;;;;;4733962;30;20056;-82
2022/11/24 05:47:44;;;;;;;2.38;1.33;;;5.20;99.90;;;;;;4735173;30;20044;-81
2022/11/24 05:50:14;;;;;;;2.20;0.70;;;5.10;99.90;;;;;;4734413;30;20065;-81
2022/11/24 05:52:42;;;;;;;0.68;0.65;;;5.20;99.90;;;;;;4734194;30;20056;-81
2022/11/24 05:55:18;;;;;;;1.85;1.75;;;5.20;99.90;;;;;;4734070;30;20053;-81
2022/11/24 05:57:45;;;;;;;1.40;1.30;;;5.20;99.90;;;;;;4718965;30;20061;-82
2022/11/24 06:00:16;;;;;;;2.05;0.95;;;5.10;99.90;;;;;;4733866;30;20385;-85
2022/11/24 06:02:52;;;;;;;4.63;1.10;;;5.10;99.90;;;;;;4729803;30;20056;-87
2022/11/24 06:05:27;;;;;;;10.25;1.40;;;5.20;99.90;;;;;;4700448;30;20052;-84
2022/11/24 06:07:55;;;;;;;1.05;1.05;;;5.20;99.90;;;;;;4703480;30;20047;-81
2022/11/24 06:10:27;;;;;;;1.77;1.30;;;5.20;99.90;;;;;;4734393;30;20048;-88
2022/11/24 06:13:06;;;;;;;8.43;1.38;;;5.20;99.90;;;;;;4703227;30;20044;-89
2022/11/24 06:15:36;;;;;;;1.77;1.23;;;5.20;99.90;;;;;;4734134;30;20416;-89
2022/11/24 06:18:03;;;;;;;3.35;0.90;;;5.20;99.90;;;;;;4734479;30;20068;-89
2022/11/24 06:20:34;;;;;;;5.72;1.40;;;5.30;99.90;;;;;;4720690;30;20064;-89
2022/11/24 06:23:01;;;;;;;1.98;1.23;;;5.40;99.90;;;;;;4715079;30;20084;-87
2022/11/24 06:25:31;;;;;;;2.13;1.20;;;5.40;99.90;;;;;;4715651;30;20424;-86
2022/11/24 06:28:03;;;;;;;1.40;1.20;;;5.50;99.90;;;;;;4715999;30;20041;-88
2022/11/24 06:30:34;;;;;;;8.45;1.88;;;5.50;99.90;;;;;;4701177;30;20064;-89
2022/11/24 06:33:02;;;;;;;3.53;1.83;;;5.60;99.90;;;;;;4701161;30;20064;-88
2022/11/24 06:35:30;;;;;;;1.25;0.80;;;5.60;99.90;;;;;;4716469;30;20413;-88
2022/11/24 06:37:57;;;;;;;5.78;2.28;;;5.50;99.90;;;;;;4683468;30;20145;-89
2022/11/24 06:40:24;;;;;;;2.53;1.27;;;5.50;99.90;;;;;;4689715;30;20057;-89
2022/11/24 06:42:52;;;;;;;4.28;0.85;;;5.50;99.90;;;;;;4693368;30;20057;-90
2022/11/24 06:45:19;;;;;;;6.43;3.40;;;5.60;99.90;;;;;;4700924;30;20052;-90
2022/11/24 06:47:47;;;;;;;4.60;1.40;;;5.60;99.90;;;;;;4700801;30;20056;-90
2022/11/24 06:50:14;;;;;;;2.40;1.10;;;5.60;99.90;;;;;;4687176;30;20061;-90
2022/11/24 06:52:42;;;;;;;5.10;1.30;;;5.60;99.90;;;;;;4686875;30;20053;-90
2022/11/24 06:55:13;;;;;;;4.97;1.25;;;5.60;99.90;;;;;;4686663;30;20064;-90
2022/11/24 06:57:40;;;;;;;2.08;1.45;;;5.60;99.90;;;;;;4703495;30;20503;-90
2022/11/24 07:00:08;;;;;;;3.53;1.13;;;5.60;99.90;;;;;;4689759;30;20060;-90
2022/11/24 07:02:35;;;;;;;4.70;1.35;;;5.70;99.90;;;;;;4704766;30;20424;-89
2022/11/24 07:05:10;;;;;;;5.35;1.35;;;5.80;99.90;;;;;;4719452;30;20053;-89
2022/11/24 07:07:38;;;;;;;3.30;2.33;;;5.80;99.90;;;;;;4719989;30;20056;-91
2022/11/24 07:10:06;;;;;;;2.28;1.98;;;5.80;99.90;;;;;;4697774;30;20496;-92
2022/11/24 07:12:34;;;;;;;11.65;1.75;;;5.80;99.90;;;;;;4690028;30;20057;-91
2022/11/24 07:15:01;;;;;;;2.28;1.80;;;5.90;99.90;;;;;;4718656;30;20060;-89
2022/11/24 07:17:28;;;;;;;4.13;2.03;;;5.90;99.90;;;;;;4719108;30;20067;-90
2022/11/24 07:19:56;;;;;;;7.38;2.90;;;5.90;99.90;;;;;;4703839;30;20493;-92
2022/11/24 07:22:23;;;;;;;3.75;1.33;;;5.90;99.90;;;;;;4704602;30;20072;-88
2022/11/24 07:24:51;;;;;;;6.38;1.98;;;5.90;99.90;;;;;;4703422;30;20767;-91
2022/11/24 07:27:18;;;;;;;2.63;1.52;;;5.90;99.90;;;;;;4703909;30;20052;-91
2022/11/24 07:29:45;;;;;;;5.13;1.60;;;5.90;99.90;;;;;;4732457;30;20069;-90
2022/11/24 07:32:13;;;;;;;8.80;1.65;;;5.90;99.90;;;;;;4718329;30;20629;-91
2022/11/24 07:34:40;;;;;;;3.20;1.48;;;5.90;99.90;;;;;;4701774;30;20054;-91
2022/11/24 07:37:07;;;;;;;2.85;1.08;;;5.90;99.90;;;;;;4710502;30;20413;-90
2022/11/24 07:39:35;;;;;;;4.95;1.60;;;5.90;99.90;;;;;;4719511;30;20041;-91
2022/11/24 07:42:04;;;;;;;15.27;3.70;;;5.90;99.90;;;;;;4704352;30;20053;-90
2022/11/24 07:44:31;;;;;;;1.60;1.27;;;5.90;99.90;;;;;;4682567;30;20404;-90
2022/11/24 07:46:59;;;;;;;2.95;1.58;;;5.90;99.90;;;;;;4717814;30;20412;-91
2022/11/24 07:49:27;;;;;;;5.53;1.52;;;6.00;99.90;;;;;;4703688;30;20413;-90
2022/11/24 07:51:54;;;;;;;2.47;1.52;;;6.00;99.90;;;;;;4717718;30;20059;-89
2022/11/24 07:54:22;;;;;;;2.15;1.30;;;6.10;99.90;;;;;;4703994;30;20060;-90
2022/11/24 07:56:49;;;;;;;7.75;1.83;;;6.10;99.90;;;;;;4717707;30;20061;-89
2022/11/24 07:59:17;;;;;;;1.45;1.35;;;6.20;99.90;;;;;;4711504;30;20061;-89
2022/11/24 08:01:44;;;;;;;7.72;1.70;;;6.10;99.90;;;;;;4717575;30;20147;-87
2022/11/24 08:04:12;;;;;;;1.08;1.08;;;6.10;99.90;;;;;;4718611;30;20068;-91
2022/11/24 08:06:39;;;;;;;5.53;2.00;;;6.10;99.90;;;;;;4718199;30;20204;-91
2022/11/24 08:09:13;;;;;;;6.95;4.05;;;6.30;99.90;;;;;;4720299;30;20068;-91
2022/11/24 08:11:41;;;;;;;2.13;1.23;;;6.20;99.90;;;;;;4735049;30;20053;-90
2022/11/24 08:14:08;;;;;;;1.83;1.05;;;6.20;99.90;;;;;;4706552;30;20067;-90
2022/11/24 08:16:35;;;;;;;5.55;2.80;;;6.30;99.90;;;;;;4736324;30;20405;-90
2022/11/24 08:19:03;;;;;;;3.95;1.55;;;6.40;99.90;;;;;;4720677;30;20400;-88
2022/11/24 08:21:31;;;;;;;3.30;2.35;;;6.40;99.90;;;;;;4706577;30;20053;-91
2022/11/24 08:23:58;;;;;;;7.47;1.65;;;6.50;99.90;;;;;;4717381;30;20510;-90
2022/11/24 08:26:26;;;;;;;3.97;1.65;;;6.50;99.90;;;;;;4689196;30;20072;-90
2022/11/24 08:28:55;;;;;;;2.22;1.90;;;6.60;99.90;;;;;;4702951;30;20079;-91
2022/11/24 08:31:25;;;;;;;3.97;1.02;;;6.60;99.90;;;;;;4720057;30;20068;-91
2022/11/24 08:33:57;;;;;;;6.40;2.03;;;6.70;99.90;;;;;;4717688;30;20053;-90
2022/11/24 08:36:24;;;;;;;4.88;1.27;;;6.70;99.90;;;;;;4702771;30;20056;-92
2022/11/24 08:38:56;;;;;;;10.38;2.60;;;6.80;99.90;;;;;;4703584;30;20057;-90
2022/11/24 08:41:26;;;;;;;5.60;2.80;;;6.90;99.90;;;;;;4718252;30;20053;-89
2022/11/24 08:43:54;;;;;;;4.03;1.02;;;7.00;99.90;;;;;;4718708;30;20492;-90
2022/11/24 08:46:22;;;;;;;2.90;1.25;;;7.10;99.90;;;;;;4735216;30;20068;-91
2022/11/24 08:48:54;;;;;;;8.98;1.42;;;7.20;99.90;;;;;;4705654;30;20057;-89
2022/11/24 08:51:24;;;;;;;3.13;1.40;;;7.30;99.90;;;;;;4720197;30;20403;-90
2022/11/24 08:53:54;;;;;;;2.30;1.40;;;7.20;99.90;;;;;;4705999;30;20059;-90
2022/11/24 08:56:22;;;;;;;3.83;1.10;;;7.20;99.90;;;;;;4719893;30;20291;-91
2022/11/24 08:58:50;;;;;;;4.30;1.55;;;7.20;99.90;;;;;;4702633;30;20052;-89
2022/11/24 09:01:17;;;;;;;3.13;0.85;;;7.20;99.90;;;;;;4702607;30;20060;-91
2022/11/24 09:03:47;;;;;;;1.85;1.33;;;7.30;99.90;;;;;;4687846;30;20048;-90
2022/11/24 09:06:21;;;;;;;3.20;1.65;;;7.40;99.90;;;;;;4702896;30;20442;-89
2022/11/24 09:08:50;;;;;;;3.80;1.38;;;7.60;99.90;;;;;;4701905;30;20064;-91
2022/11/24 09:11:18;;;;;;;10.20;1.40;;;7.70;99.90;;;;;;4717753;30;20057;-92
2022/11/24 09:13:45;;;;;;;6.80;2.22;;;7.80;99.90;;;;;;4688331;30;20057;-89
2022/11/24 09:16:18;;;;;;;3.50;1.13;;;7.80;99.90;;;;;;4687647;30;20052;-90
2022/11/24 09:18:47;;;;;;;5.68;1.50;;;7.70;99.90;;;;;;4687534;30;20057;-88
2022/11/24 09:21:17;;;;;;;4.55;1.55;;;7.80;99.90;;;;;;4687577;30;20057;-90
2022/11/24 09:23:50;;;;;;;1.25;1.15;;;7.80;99.90;;;;;;4702097;30;20508;-90
2022/11/24 09:26:30;;;;;;;2.20;0.73;;;7.80;99.90;;;;;;4702969;30;20599;-91
2022/11/24 09:28:59;;;;;;;5.47;1.13;;;7.90;99.90;;;;;;4689109;30;20060;-90
2022/11/24 09:31:29;;;;;;;6.18;1.80;;;7.80;99.90;;;;;;4719424;30;20067;-89
2022/11/24 09:33:58;;;;;;;3.67;2.33;;;7.80;99.90;;;;;;4719588;30;20052;-91
2022/11/24 09:36:26;;;;;;;3.25;2.08;;;7.80;99.90;;;;;;4734651;30;20059;-90
2022/11/24 09:38:54;;;;;;;6.53;2.95;;;7.90;99.90;;;;;;4705409;30;20071;-90
2022/11/24 09:41:58;;;;;;;7.80;2.80;;;7.80;99.90;;;;;;4719142;30;20057;-91
2022/11/24 09:44:45;;;;;;;1.42;1.30;;;7.80;99.90;;;;;;4704447;30;20052;-91
2022/11/24 09:47:18;;;;;;;2.15;1.27;;;7.90;99.90;;;;;;4719429;30;20048;-90
2022/11/24 09:50:01;;;;;;;6.57;1.10;;;8.10;99.90;;;;;;4704923;30;20060;-90
2022/11/24 09:52:42;;;;;;;2.10;1.38;;;8.20;99.90;;;;;;4701870;30;20057;-91
2022/11/24 09:55:26;;;;;;;2.35;1.35;;;8.30;99.90;;;;;;4701873;30;20053;-90
2022/11/24 09:58:10;;;;;;;3.55;1.27;;;8.20;99.90;;;;;;4717422;30;20056;-88
2022/11/24 10:00:40;;;;;;;5.20;2.67;;;8.10;99.90;;;;;;4687346;30;20053;-90
2022/11/24 10:03:26;;;;;;;3.05;2.10;;;8.00;99.90;;;;;;4701786;30;20068;-90
2022/11/24 10:05:54;;;;;;;3.20;1.70;;;8.10;99.90;;;;;;4687538;30;20575;-88
2022/11/24 10:08:51;;;;;;;9.43;2.70;;;8.00;99.90;;;;;;4694446;30;20063;-90
2022/11/24 10:11:32;;;;;;;5.00;1.15;;;8.00;99.90;;;;;;4704281;30;20040;-90
2022/11/24 10:14:44;;;;;;;3.30;1.08;;;8.10;99.90;;;;;;4705025;30;20056;-86
2022/11/24 10:17:20;;;;;;;4.20;1.02;;;8.10;99.90;;;;;;4689889;30;20064;-90
2022/11/24 10:20:03;;;;;;;6.30;1.65;;;8.10;99.90;;;;;;4704265;30;20048;-90
2022/11/24 10:23:04;;;;;;;13.48;2.92;;;8.10;99.90;;;;;;4719434;30;20056;-92
2022/11/24 10:25:59;;;;;;;1.83;1.52;;;8.20;99.90;;;;;;4689088;30;20063;-89
2022/11/24 10:28:44;;;;;;;2.15;1.08;;;8.20;99.90;;;;;;4704227;30;20055;-88
2022/11/24 10:31:39;;;;;;;1.65;1.15;;;8.20;99.90;;;;;;4705783;30;20053;-89
2022/11/24 10:34:21;;;;;;;5.32;1.55;;;8.20;99.90;;;;;;4693662;30;20530;-89
2022/11/24 10:37:10;;;;;;;1.60;1.23;;;8.20;99.90;;;;;;4722589;30;20059;-88
2022/11/24 10:40:04;;;;;;;7.57;0.88;;;8.20;99.90;;;;;;4722667;30;20045;-89
2022/11/24 10:42:35;;;;;;;5.38;1.75;;;8.20;99.90;;;;;;4708887;30;20064;-88
2022/11/24 10:45:11;;;;;;;2.10;1.65;;;8.20;99.90;;;;;;4738443;30;20048;-91
2022/11/24 10:47:40;;;;;;;3.08;1.30;;;8.10;99.90;;;;;;4722572;30;20048;-89
2022/11/24 10:50:16;;;;;;;4.13;3.08;;;8.20;99.90;;;;;;4722478;30;20075;-90
2022/11/24 10:52:58;;;;;;;4.22;1.00;;;8.20;99.90;;;;;;4693527;30;20060;-92
2022/11/24 10:55:54;;;;;;;1.75;1.15;;;8.20;99.90;;;;;;4708622;30;20053;-91
2022/11/24 10:58:22;;;;;;;0.90;0.80;;;8.10;99.90;;;;;;4708972;30;20071;-88
2022/11/24 11:00:50;;;;;;;3.90;1.25;;;8.00;99.90;;;;;;4722494;30;20063;-90
2022/11/24 11:03:26;;;;;;;2.28;1.13;;;7.90;99.90;;;;;;4707776;30;20053;-89
2022/11/24 11:06:13;;;;;;;10.25;1.38;;;7.70;99.90;;;;;;4737458;30;20522;-89
2022/11/24 11:08:41;;;;;;;0.68;0.68;;;7.60;99.90;;;;;;4736780;30;20067;-88
2022/11/24 11:11:26;;;;;;;1.45;0.77;;;7.30;99.90;;;;;;4722522;30;20064;-91
2022/11/24 11:13:55;;;;;;;0.88;0.88;;;7.20;99.90;;;;;;4737205;30;20061;-88
2022/11/24 11:16:40;;;;;;;3.92;1.13;;;7.30;99.90;;;;;;4709047;30;20052;-89
2022/11/24 11:19:33;;;;;;;0.50;0.50;;;7.30;99.90;;;;;;4736979;30;20056;-91
2022/11/24 11:22:28;;;;;;;0.98;0.80;;;7.20;99.90;;;;;;4739144;30;20507;-89
2022/11/24 11:25:13;;;;;;;5.68;1.85;;;6.90;99.90;;;;;;4738932;30;20059;-89
2022/11/24 11:27:41;;;;;;;1.67;1.50;;;6.70;99.90;;;;;;4728659;30;20493;-92
2022/11/24 11:30:17;;;;;;;1.92;0.95;;;6.40;99.90;;;;;;4720806;30;20381;-91
2022/11/24 11:33:29;;;;;;;0.75;0.75;;;6.30;99.90;;;;;;4705221;30;20045;-91
2022/11/24 11:36:17;;;;;;;;;;;6.20;99.90;;;;;;4720677;30;20057;-89
2022/11/24 11:38:46;;;;;;;0.98;0.70;;;6.10;99.90;;;;;;4691133;30;19935;-88
2022/11/24 11:41:20;;;;;;;1.70;1.58;;;6.10;99.90;;;;;;4675539;30;20053;-90
2022/11/24 11:43:53;;;;;;;5.20;1.88;;;6.10;99.90;;;;;;4703643;30;20703;-91
2022/11/24 11:46:23;;;;;;;0.60;0.55;;;6.20;99.90;;;;;;4690041;30;20400;-89
2022/11/24 11:48:51;;;;;;;0.73;0.73;;;6.30;99.90;;;;;;4689961;30;20126;-89
2022/11/24 11:51:37;;;;;;;0.70;0.70;;;6.40;99.90;;;;;;4689522;30;20053;-90
2022/11/24 11:54:15;;;;;;;0.70;0.70;;;6.50;99.90;;;;;;4704484;30;20053;-91
2022/11/24 11:57:09;;;;;;;1.48;0.75;;;6.60;99.90;;;;;;4703809;30;20064;-91
2022/11/24 11:59:48;;;;;;;0.90;0.90;;;6.70;99.90;;;;;;4703935;30;20404;-91
2022/11/24 12:02:40;;;;;;;1.77;1.65;;;6.50;99.90;;;;;;4704319;30;20083;-90
2022/11/24 12:05:30;;;;;;;1.08;1.05;;;6.60;99.90;;;;;;4688888;30;20412;-88
2022/11/24 12:08:25;;;;;;;1.77;0.80;;;6.50;99.90;;;;;;4689555;30;20481;-91
2022/11/24 12:11:04;;;;;;;2.55;2.30;;;6.50;99.90;;;;;;4717232;30;20049;-91
2022/11/24 12:13:56;;;;;;;1.20;0.60;;;6.50;99.90;;;;;;4688923;30;20061;-91
2022/11/24 12:16:40;;;;;;;0.90;0.90;;;6.30;99.90;;;;;;4718857;30;20501;-91
2022/11/24 12:19:14;;;;;;;2.35;2.15;;;6.30;99.90;;;;;;4703665;30;20053;-89
2022/11/24 12:21:51;;;;;;;6.35;1.60;;;6.30;99.90;;;;;;4704028;30;20064;-89
2022/11/24 12:24:43;;;;;;;2.35;1.67;;;6.20;99.90;;;;;;4718814;30;20049;-90
2022/11/24 12:27:26;;;;;;;1.88;1.00;;;6.20;99.90;;;;;;4718760;30;20061;-89
2022/11/24 12:29:56;;;;;;;0.90;0.90;;;6.20;99.90;;;;;;4718433;30;20057;-91
2022/11/24 12:32:59;;;;;;;5.90;1.17;;;6.20;99.90;;;;;;4703649;30;20053;-91
2022/11/24 12:35:37;;;;;;;0.90;0.90;;;6.10;99.90;;;;;;4717885;30;20049;-90
2022/11/24 12:38:25;;;;;;;1.20;1.20;;;6.10;99.90;;;;;;4719038;30;20049;-89
2022/11/24 12:41:05;;;;;;;0.73;0.73;;;6.00;99.90;;;;;;4703272;30;20409;-91
2022/11/24 12:43:57;;;;;;;1.35;1.00;;;6.00;99.90;;;;;;4717783;30;20404;-91
2022/11/24 12:46:53;;;;;;;1.13;0.90;;;6.00;99.90;;;;;;4704199;30;20516;-90
2022/11/24 12:49:38;;;;;;;2.03;1.00;;;6.00;99.90;;;;;;4703177;30;20052;-90
2022/11/24 12:52:52;;;;;;;2.60;1.02;;;6.10;99.90;;;;;;4717373;30;20044;-90
2022/11/24 12:55:32;;;;;;;2.35;0.80;;;6.10;99.90;;;;;;4678831;30;20046;-90
2022/11/24 12:58:21;;;;;;;2.58;0.70;;;6.20;99.90;;;;;;4668931;30;20529;-90
2022/11/24 13:01:11;;;;;;;6.07;2.83;;;6.10;99.90;;;;;;4691043;30;20053;-89
2022/11/24 13:03:52;;;;;;;5.28;1.63;;;6.10;99.90;;;;;;4685501;30;20045;-92
2022/11/24 13:06:25;;;;;;;2.17;0.90;;;6.10;99.90;;;;;;4701417;30;20057;-91
2022/11/24 13:08:53;;;;;;;1.08;0.95;;;6.10;99.90;;;;;;4700875;30;20511;-91
2022/11/24 13:11:20;;;;;;;3.80;1.63;;;6.20;99.90;;;;;;4688786;30;20053;-91
2022/11/24 13:14:03;;;;;;;0.80;0.80;;;6.20;99.90;;;;;;4689096;30;20493;-91
2022/11/24 13:16:31;;;;;;;1.23;0.73;;;6.20;99.90;;;;;;4718446;30;20057;-91
2022/11/24 13:24:16;;;;;;;1.35;0.93;;;6.10;99.90;;;;;;4611034;30;20055;-90
2022/11/24 13:26:51;;;;;;;1.75;1.05;;;6.20;99.90;;;;;;4613612;31;20060;-83
2022/11/24 13:29:33;;;;;;;1.20;1.00;;;6.20;99.90;;;;;;4704544;30;20064;-84
2022/11/24 13:32:06;;;;;;;2.38;0.90;;;6.20;99.90;;;;;;4687460;30;20053;-83
2022/11/24 13:37:22;;;;;;;4.00;1.85;;;6.30;99.90;;;;;;4701878;30;20053;-83